createdAt,value
2019-02-19T00:00:06.077Z,18.73
2019-02-19T00:02:34.608Z,21.53
2019-02-19T00:05:03.195Z,19.80
2019-02-19T00:07:31.790Z,19.17
2019-02-19T00:10:00.359Z,19.70
2019-02-19T00:12:29.010Z,19.40
2019-02-19T00:14:57.872Z,20.70
2019-02-19T00:17:26.644Z,16.63
2019-02-19T00:19:55.128Z,17.87
2019-02-19T00:22:23.636Z,20.27
2019-02-19T00:24:52.296Z,21.33
2019-02-19T00:27:20.963Z,19.43
2019-02-19T00:29:49.451Z,19.97
2019-02-19T00:32:18.022Z,18.80
2019-02-19T00:34:46.729Z,16.90
2019-02-19T00:37:15.360Z,19.57
2019-02-19T00:39:43.959Z,15.33
2019-02-19T00:42:12.581Z,19.83
2019-02-19T00:44:41.064Z,15.47
2019-02-19T00:47:09.600Z,18.73
2019-02-19T00:49:38.181Z,15.83
2019-02-19T00:52:06.846Z,19.07
2019-02-19T00:54:35.378Z,17.23
2019-02-19T00:57:03.906Z,20.27
2019-02-19T00:59:32.475Z,15.77
2019-02-19T01:02:01.063Z,21.73
2019-02-19T01:04:29.728Z,25.50
2019-02-19T01:06:58.321Z,26.73
2019-02-19T01:09:29.877Z,21.47
2019-02-19T01:11:58.181Z,19.10
2019-02-19T01:14:26.767Z,16.37
2019-02-19T01:16:55.328Z,15.70
2019-02-19T01:19:23.904Z,19.00
2019-02-19T01:21:52.620Z,18.47
2019-02-19T01:24:21.248Z,19.90
2019-02-19T01:26:49.804Z,20.97
2019-02-19T01:29:18.373Z,27.33
2019-02-19T01:31:46.913Z,22.10
2019-02-19T01:34:15.521Z,20.07
2019-02-19T01:36:44.040Z,24.50
2019-02-19T01:39:12.694Z,18.73
2019-02-19T01:41:41.256Z,19.90
2019-02-19T01:44:09.822Z,17.63
2019-02-19T01:46:38.432Z,19.20
2019-02-19T01:49:06.913Z,20.07
2019-02-19T01:51:35.544Z,16.57
2019-02-19T01:54:04.465Z,20.83
2019-02-19T01:56:33.083Z,26.03
2019-02-19T01:59:01.737Z,17.50
2019-02-19T02:01:30.293Z,17.77
2019-02-19T02:03:59.064Z,18.97
2019-02-19T02:06:27.692Z,17.77
2019-02-19T02:08:56.197Z,21.83
2019-02-19T02:11:24.770Z,14.07
2019-02-19T02:13:53.553Z,15.47
2019-02-19T02:16:22.153Z,18.97
2019-02-19T02:18:50.620Z,18.77
2019-02-19T02:21:19.364Z,19.27
2019-02-19T02:23:48.220Z,15.27
2019-02-19T02:26:16.692Z,15.07
2019-02-19T02:28:45.211Z,16.97
2019-02-19T02:31:13.780Z,15.93
2019-02-19T02:33:42.377Z,16.80
2019-02-19T02:36:10.963Z,14.20
2019-02-19T02:38:39.514Z,15.53
2019-02-19T02:41:08.281Z,16.00
2019-02-19T02:43:56.188Z,20.33
2019-02-19T02:46:24.847Z,17.60
2019-02-19T02:48:53.388Z,18.67
2019-02-19T02:51:21.973Z,17.20
2019-02-19T02:53:50.557Z,19.33
2019-02-19T02:56:19.125Z,17.37
2019-02-19T02:58:47.847Z,19.27
2019-02-19T03:01:16.554Z,15.33
2019-02-19T03:03:45.163Z,14.97
2019-02-19T03:06:15.355Z,13.40
2019-02-19T03:08:43.975Z,14.03
2019-02-19T03:11:12.694Z,14.03
2019-02-19T03:13:41.286Z,19.70
2019-02-19T03:16:09.850Z,16.37
2019-02-19T03:18:38.431Z,16.17
2019-02-19T03:21:07.016Z,14.53
2019-02-19T03:23:35.588Z,16.13
2019-02-19T03:26:04.429Z,14.30
2019-02-19T03:28:33.088Z,13.03
2019-02-19T03:31:01.651Z,14.20
2019-02-19T03:33:30.350Z,16.00
2019-02-19T03:36:06.817Z,15.80
2019-02-19T03:38:35.451Z,13.03
2019-02-19T03:41:04.089Z,12.23
2019-02-19T03:43:32.755Z,15.80
2019-02-19T03:46:01.308Z,13.47
2019-02-19T03:48:30.025Z,14.77
2019-02-19T03:50:58.697Z,15.50
2019-02-19T03:53:27.306Z,16.97
2019-02-19T03:55:55.997Z,21.13
2019-02-19T03:58:24.630Z,17.23
2019-02-19T04:00:53.250Z,21.53
2019-02-19T04:03:21.898Z,17.20
2019-02-19T04:05:50.794Z,17.33
2019-02-19T04:08:19.373Z,20.03
2019-02-19T04:10:47.902Z,19.97
2019-02-19T04:13:16.468Z,23.47
2019-02-19T04:15:45.182Z,22.47
2019-02-19T04:18:13.964Z,21.67
2019-02-19T04:20:42.518Z,20.20
2019-02-19T04:23:11.102Z,16.47
2019-02-19T04:25:39.697Z,14.73
2019-02-19T04:28:08.273Z,18.07
2019-02-19T04:30:36.939Z,15.97
2019-02-19T04:33:05.519Z,16.30
2019-02-19T04:35:34.115Z,16.70
2019-02-19T04:38:02.749Z,19.30
2019-02-19T04:40:31.330Z,15.13
2019-02-19T04:42:59.889Z,19.57
2019-02-19T04:45:28.472Z,16.87
2019-02-19T04:47:57.042Z,19.23
2019-02-19T04:50:25.644Z,16.53
2019-02-19T04:52:54.894Z,20.83
2019-02-19T04:55:23.513Z,14.97
2019-02-19T04:57:52.032Z,17.70
2019-02-19T05:00:20.593Z,15.40
2019-02-19T05:02:51.428Z,16.87
2019-02-19T05:05:38.777Z,17.00
2019-02-19T05:08:19.643Z,16.13
2019-02-19T05:10:48.210Z,14.93
2019-02-19T05:13:16.770Z,16.00
2019-02-19T05:15:45.352Z,17.10
2019-02-19T05:18:13.923Z,15.43
2019-02-19T05:20:42.551Z,16.50
2019-02-19T05:23:11.218Z,21.43
2019-02-19T05:25:40.134Z,17.10
2019-02-19T05:28:08.815Z,15.10
2019-02-19T05:30:37.498Z,14.60
2019-02-19T05:33:06.379Z,16.97
2019-02-19T05:35:35.081Z,15.17
2019-02-19T05:38:03.660Z,14.60
2019-02-19T05:40:32.273Z,13.97
2019-02-19T05:43:01.544Z,15.43
2019-02-19T05:45:30.158Z,17.70
2019-02-19T05:47:58.747Z,17.00
2019-02-19T05:50:27.366Z,16.03
2019-02-19T05:52:55.917Z,15.90
2019-02-19T05:55:24.647Z,16.43
2019-02-19T05:57:53.197Z,17.07
2019-02-19T06:00:21.783Z,24.83
2019-02-19T06:02:50.709Z,18.53
2019-02-19T06:05:19.372Z,17.93
2019-02-19T06:07:48.030Z,16.53
2019-02-19T06:10:16.704Z,17.43
2019-02-19T06:12:45.266Z,15.40
2019-02-19T06:15:14.237Z,14.57
2019-02-19T06:17:42.818Z,20.07
2019-02-19T06:20:11.572Z,13.70
2019-02-19T06:22:40.190Z,16.73
2019-02-19T06:25:09.685Z,16.50
2019-02-19T06:27:38.317Z,17.47
2019-02-19T06:30:14.086Z,16.97
2019-02-19T06:32:42.640Z,20.13
2019-02-19T06:35:11.314Z,18.17
2019-02-19T06:37:39.871Z,25.57
2019-02-19T06:40:11.633Z,22.67
2019-02-19T06:42:40.237Z,20.60
2019-02-19T06:45:08.866Z,25.43
2019-02-19T06:47:37.462Z,17.80
2019-02-19T06:50:06.354Z,18.00
2019-02-19T06:52:34.941Z,17.33
2019-02-19T06:55:03.702Z,24.87
2019-02-19T06:57:32.334Z,20.90
2019-02-19T07:00:00.938Z,20.10
2019-02-19T07:02:32.815Z,19.87
2019-02-19T07:05:02.402Z,41.43
2019-02-19T07:07:31.306Z,43.70
2019-02-19T07:09:59.893Z,37.73
2019-02-19T07:12:28.479Z,20.10
2019-02-19T07:14:57.121Z,30.20
2019-02-19T07:17:25.749Z,49.07
2019-02-19T07:19:54.294Z,21.47
2019-02-19T07:22:25.293Z,20.57
2019-02-19T07:24:54.874Z,21.73
2019-02-19T07:27:23.592Z,22.97
2019-02-19T07:29:52.325Z,19.23
2019-02-19T07:32:21.032Z,18.13
2019-02-19T07:34:49.619Z,15.80
2019-02-19T07:37:18.201Z,21.70
2019-02-19T07:39:46.806Z,15.73
2019-02-19T07:42:15.626Z,18.60
2019-02-19T07:44:44.267Z,17.00
2019-02-19T07:47:12.942Z,15.83
2019-02-19T07:49:41.596Z,17.27
2019-02-19T07:52:10.214Z,18.77
2019-02-19T07:54:38.801Z,22.73
2019-02-19T07:57:07.535Z,27.83
2019-02-19T07:59:36.067Z,21.70
2019-02-19T08:02:04.757Z,20.77
2019-02-19T08:04:33.449Z,22.93
2019-02-19T08:07:02.009Z,25.80
2019-02-19T08:09:30.704Z,25.13
2019-02-19T08:11:59.290Z,20.27
2019-02-19T08:14:28.605Z,28.97
2019-02-19T08:16:57.510Z,24.23
2019-02-19T08:19:26.049Z,22.63
2019-02-19T08:21:54.912Z,25.00
2019-02-19T08:24:23.590Z,25.57
2019-02-19T08:26:52.638Z,25.37
2019-02-19T08:29:21.359Z,27.60
2019-02-19T08:31:49.974Z,30.40
2019-02-19T08:34:18.574Z,31.13
2019-02-19T08:36:48.590Z,31.83
2019-02-19T08:39:17.142Z,28.67
2019-02-19T08:41:47.304Z,28.10
2019-02-19T08:44:15.884Z,25.37
2019-02-19T08:46:44.495Z,27.57
2019-02-19T08:49:13.117Z,24.23
2019-02-19T08:51:41.736Z,21.57
2019-02-19T08:54:14.929Z,27.23
2019-02-19T08:56:43.855Z,28.87
2019-02-19T08:59:12.511Z,20.90
2019-02-19T09:01:41.223Z,27.77
2019-02-19T09:04:29.163Z,22.17
2019-02-19T09:06:58.367Z,22.73
2019-02-19T09:09:27.122Z,21.97
2019-02-19T09:11:55.757Z,22.53
2019-02-19T09:14:24.543Z,18.43
2019-02-19T09:16:53.130Z,23.07
2019-02-19T09:19:21.740Z,23.07
2019-02-19T09:21:50.385Z,19.17
2019-02-19T09:24:20.394Z,20.20
2019-02-19T09:26:48.961Z,19.60
2019-02-19T09:29:17.726Z,26.57
2019-02-19T09:31:46.353Z,21.50
2019-02-19T09:34:15.473Z,23.70
2019-02-19T09:36:47.089Z,15.50
2019-02-19T09:39:15.863Z,21.57
2019-02-19T09:41:44.457Z,19.53
2019-02-19T09:44:13.302Z,22.00
2019-02-19T09:46:42.199Z,17.40
2019-02-19T09:49:11.090Z,23.13
2019-02-19T09:51:39.669Z,22.30
2019-02-19T09:54:08.372Z,19.13
2019-02-19T09:56:36.974Z,13.13
2019-02-19T09:59:05.679Z,14.10
2019-02-19T10:01:34.232Z,14.93
2019-02-19T10:04:02.907Z,17.17
2019-02-19T10:06:31.482Z,15.30
2019-02-19T10:09:00.219Z,19.10
2019-02-19T10:11:28.770Z,12.53
2019-02-19T10:13:57.307Z,15.83
2019-02-19T10:16:27.053Z,8.77
2019-02-19T10:18:55.612Z,10.20
2019-02-19T10:21:24.296Z,11.40
2019-02-19T10:23:52.886Z,14.40
2019-02-19T10:26:21.554Z,9.33
2019-02-19T10:28:50.348Z,11.83
2019-02-19T10:31:38.305Z,9.57
2019-02-19T10:34:07.025Z,6.53
2019-02-19T10:36:35.675Z,8.03
2019-02-19T10:39:05.174Z,14.73
2019-02-19T10:41:33.770Z,7.77
2019-02-19T10:44:02.472Z,8.87
2019-02-19T10:46:31.088Z,9.53
2019-02-19T10:49:01.602Z,10.27
2019-02-19T10:51:30.234Z,9.80
2019-02-19T10:53:58.749Z,10.73
2019-02-19T10:56:27.313Z,11.03
2019-02-19T10:58:55.955Z,9.70
2019-02-19T11:01:24.666Z,9.10
2019-02-19T11:03:53.450Z,12.03
2019-02-19T11:06:22.184Z,9.37
2019-02-19T11:08:50.787Z,9.83
2019-02-19T11:11:24.061Z,15.20
2019-02-19T11:13:52.376Z,12.17
2019-02-19T11:16:20.955Z,8.17
2019-02-19T11:18:49.589Z,7.80
2019-02-19T11:21:19.877Z,8.20
2019-02-19T11:23:48.900Z,8.07
2019-02-19T11:26:19.079Z,10.53
2019-02-19T11:28:47.668Z,8.90
2019-02-19T11:31:16.458Z,8.97
2019-02-19T11:33:45.045Z,6.07
2019-02-19T11:36:13.726Z,13.17
2019-02-19T11:38:42.477Z,9.00
2019-02-19T11:41:11.481Z,6.67
2019-02-19T11:43:40.149Z,7.53
2019-02-19T11:46:08.741Z,9.07
2019-02-19T11:48:37.515Z,10.00
2019-02-19T11:51:06.541Z,5.60
2019-02-19T11:53:35.086Z,9.37
2019-02-19T11:56:04.113Z,10.50
2019-02-19T11:58:32.728Z,8.27
2019-02-19T12:01:01.596Z,7.93
2019-02-19T12:03:30.240Z,14.53
2019-02-19T12:05:58.946Z,8.13
2019-02-19T12:08:27.569Z,6.50
2019-02-19T12:10:56.402Z,10.67
2019-02-19T12:13:25.329Z,6.57
2019-02-19T12:15:53.837Z,6.33
2019-02-19T12:18:22.453Z,9.00
2019-02-19T12:20:51.122Z,10.77
2019-02-19T12:23:19.670Z,8.30
2019-02-19T12:25:48.455Z,6.43
2019-02-19T12:28:17.001Z,7.00
2019-02-19T12:30:45.586Z,12.50
2019-02-19T12:33:14.129Z,7.57
2019-02-19T12:35:42.748Z,10.50
2019-02-19T12:38:11.338Z,6.03
2019-02-19T12:40:40.230Z,6.40
2019-02-19T12:43:08.878Z,5.03
2019-02-19T12:45:37.555Z,10.03
2019-02-19T12:48:06.192Z,11.47
2019-02-19T12:50:34.829Z,5.87
2019-02-19T12:53:04.013Z,12.20
2019-02-19T12:55:32.607Z,6.47
2019-02-19T12:58:01.275Z,7.03
2019-02-19T13:00:29.950Z,7.83
2019-02-19T13:02:58.685Z,6.97
2019-02-19T13:05:27.971Z,7.40
2019-02-19T13:07:56.637Z,9.57
2019-02-19T13:10:25.186Z,10.03
2019-02-19T13:12:53.818Z,11.43
2019-02-19T13:15:24.157Z,9.83
2019-02-19T13:17:53.019Z,7.07
2019-02-19T13:20:21.646Z,9.47
2019-02-19T13:22:50.469Z,10.63
2019-02-19T13:25:19.050Z,11.27
2019-02-19T13:27:49.822Z,6.93
2019-02-19T13:30:22.530Z,9.33
2019-02-19T13:32:51.443Z,12.57
2019-02-19T13:35:24.741Z,9.67
2019-02-19T13:37:53.118Z,13.93
2019-02-19T13:40:21.778Z,11.17
2019-02-19T13:42:50.408Z,11.13
2019-02-19T13:45:19.039Z,8.27
2019-02-19T13:47:48.322Z,6.70
2019-02-19T13:50:21.484Z,10.30
2019-02-19T13:53:00.514Z,9.43
2019-02-19T13:55:30.734Z,9.20
2019-02-19T13:57:59.456Z,11.00
2019-02-19T14:00:29.838Z,11.17
2019-02-19T14:02:58.596Z,8.27
2019-02-19T14:05:27.310Z,8.10
2019-02-19T14:07:55.943Z,14.63
2019-02-19T14:10:24.596Z,10.10
2019-02-19T14:12:53.254Z,10.87
2019-02-19T14:15:26.450Z,11.73
2019-02-19T14:17:55.437Z,8.03
2019-02-19T14:20:28.601Z,8.97
2019-02-19T14:22:59.098Z,10.57
2019-02-19T14:25:29.287Z,10.00
2019-02-19T14:27:59.695Z,7.70
2019-02-19T14:30:41.712Z,8.37
2019-02-19T14:33:28.410Z,9.57
2019-02-19T14:38:56.315Z,11.13
2019-02-19T14:41:35.870Z,13.30
2019-02-19T14:44:06.346Z,10.17
2019-02-19T14:46:39.346Z,9.33
2019-02-19T14:49:15.073Z,14.73
2019-02-19T14:52:03.365Z,11.67
2019-02-19T14:54:39.773Z,18.57
2019-02-19T14:57:10.144Z,13.03
2019-02-19T14:59:43.103Z,16.00
2019-02-19T15:02:21.807Z,12.50
2019-02-19T15:05:10.497Z,11.13
2019-02-19T15:07:46.377Z,21.50
2019-02-19T15:10:18.176Z,14.37
2019-02-19T15:12:48.388Z,15.10
2019-02-19T15:15:21.668Z,12.43
2019-02-19T15:17:57.807Z,11.17
2019-02-19T15:20:33.718Z,11.77
2019-02-19T15:23:15.863Z,9.83
2019-02-19T15:26:03.478Z,13.80
2019-02-19T15:28:42.454Z,9.37
2019-02-19T15:31:28.593Z,13.37
2019-02-19T15:34:01.638Z,19.37
2019-02-19T15:36:37.887Z,7.80
2019-02-19T15:39:08.432Z,9.67
2019-02-19T15:41:46.063Z,13.47
2019-02-19T15:44:19.137Z,12.50
2019-02-19T15:46:52.387Z,10.47
2019-02-19T15:49:28.595Z,12.00
2019-02-19T15:52:00.211Z,17.50
2019-02-19T15:54:30.785Z,9.70
2019-02-19T15:57:01.137Z,10.97
2019-02-19T15:59:34.471Z,16.73
2019-02-19T16:02:04.657Z,16.07
2019-02-19T16:04:37.692Z,11.90
2019-02-19T16:07:16.688Z,19.80
2019-02-19T16:09:47.009Z,13.00
2019-02-19T16:12:17.990Z,17.07
2019-02-19T16:15:11.535Z,25.27
2019-02-19T16:17:47.279Z,13.60
2019-02-19T16:20:34.148Z,16.63
2019-02-19T16:23:04.699Z,15.40
2019-02-19T16:25:51.256Z,13.87
2019-02-19T16:28:27.719Z,19.80
2019-02-19T16:31:14.346Z,16.40
2019-02-19T16:33:44.633Z,14.70
2019-02-19T16:36:15.282Z,16.33
2019-02-19T16:38:51.414Z,15.17
2019-02-19T16:41:27.141Z,18.37
2019-02-19T16:44:00.041Z,18.23
2019-02-19T16:46:32.946Z,14.23
2019-02-19T16:49:06.579Z,11.53
2019-02-19T16:52:01.983Z,19.70
2019-02-19T16:54:35.393Z,16.37
2019-02-19T16:57:13.163Z,16.83
2019-02-19T16:59:55.850Z,16.07
2019-02-19T17:02:26.226Z,14.00
2019-02-19T17:05:02.690Z,14.87
2019-02-19T17:07:34.675Z,12.07
2019-02-19T17:10:10.474Z,16.97
2019-02-19T17:12:55.707Z,11.23
2019-02-19T17:15:44.210Z,11.83
2019-02-19T17:18:26.460Z,13.30
2019-02-19T17:20:56.857Z,10.30
2019-02-19T17:23:27.137Z,11.83
2019-02-19T17:25:57.431Z,12.17
2019-02-19T17:28:27.630Z,15.60
2019-02-19T17:31:03.584Z,15.07
2019-02-19T17:33:39.442Z,14.67
2019-02-19T17:36:12.323Z,11.33
2019-02-19T17:38:48.598Z,10.97
2019-02-19T17:41:24.296Z,12.17
2019-02-19T17:44:00.121Z,10.53
2019-02-19T17:46:46.657Z,11.30
2019-02-19T17:49:17.226Z,11.27
2019-02-19T17:51:52.967Z,15.83
2019-02-19T17:54:35.070Z,18.80
2019-02-19T17:57:11.407Z,16.83
2019-02-19T17:59:41.841Z,18.33
2019-02-19T18:02:17.510Z,19.53
2019-02-19T18:04:47.708Z,16.27
2019-02-19T18:07:27.080Z,15.97
2019-02-19T18:10:09.391Z,15.97
2019-02-19T18:12:56.027Z,17.93
2019-02-19T18:15:41.378Z,19.00
2019-02-19T18:18:23.612Z,13.87
2019-02-19T18:20:52.267Z,17.73
2019-02-19T18:23:20.925Z,17.70
2019-02-19T18:25:51.750Z,17.60
2019-02-19T18:28:20.674Z,13.23
2019-02-19T18:30:50.599Z,17.20
2019-02-19T18:33:19.173Z,12.67
2019-02-19T18:35:47.745Z,18.10
2019-02-19T18:38:16.520Z,15.90
2019-02-19T18:40:45.159Z,15.17
2019-02-19T18:43:13.788Z,18.13
2019-02-19T18:45:42.603Z,21.07
2019-02-19T18:48:11.231Z,15.90
2019-02-19T18:50:39.813Z,15.47
2019-02-19T18:53:08.441Z,15.17
2019-02-19T18:58:24.776Z,13.57
2019-02-19T19:00:53.486Z,11.40
2019-02-19T19:03:22.081Z,15.90
2019-02-19T19:05:52.316Z,12.43
2019-02-19T19:08:20.986Z,11.97
2019-02-19T19:10:49.796Z,14.80
2019-02-19T19:13:18.465Z,13.27
2019-02-19T19:15:47.064Z,15.30
2019-02-19T19:18:15.743Z,13.23
2019-02-19T19:20:44.391Z,18.03
2019-02-19T19:23:13.004Z,19.30
2019-02-19T19:25:41.706Z,19.27
2019-02-19T19:28:10.298Z,16.20
2019-02-19T19:30:40.667Z,16.97
2019-02-19T19:33:09.616Z,15.73
2019-02-19T19:35:38.257Z,22.80
2019-02-19T19:38:07.085Z,13.27
2019-02-19T19:40:35.659Z,13.27
2019-02-19T19:43:04.379Z,13.53
2019-02-19T19:45:33.123Z,12.10
2019-02-19T19:48:01.858Z,9.77
2019-02-19T19:50:30.414Z,9.97
2019-02-19T19:52:58.995Z,15.03
2019-02-19T19:55:27.654Z,13.63
2019-02-19T19:57:56.277Z,16.80
2019-02-19T20:00:44.267Z,16.50
2019-02-19T20:03:12.879Z,22.17
2019-02-19T20:05:41.470Z,14.80
2019-02-19T20:08:10.066Z,22.33
2019-02-19T20:10:58.062Z,16.33
2019-02-19T20:13:26.631Z,15.80
2019-02-19T20:15:55.424Z,12.90
2019-02-19T20:18:24.008Z,24.97
2019-02-19T20:20:52.567Z,13.67
2019-02-19T20:23:21.200Z,19.37
2019-02-19T20:26:09.265Z,14.73
2019-02-19T20:28:37.933Z,19.07
2019-02-19T20:31:07.824Z,18.10
2019-02-19T20:33:36.477Z,23.90
2019-02-19T20:36:05.398Z,18.33
2019-02-19T20:38:34.142Z,20.60
2019-02-19T20:41:02.812Z,17.77
2019-02-19T20:43:31.613Z,19.57
2019-02-19T20:46:00.218Z,19.23
2019-02-19T20:48:28.949Z,22.13
2019-02-19T20:50:57.578Z,26.43
2019-02-19T20:53:26.198Z,25.63
2019-02-19T20:55:54.915Z,22.60
2019-02-19T20:58:23.490Z,22.00
2019-02-19T21:00:53.369Z,21.40
2019-02-19T21:03:22.232Z,22.80
2019-02-19T21:05:50.823Z,21.17
2019-02-19T21:08:19.520Z,21.10
2019-02-19T21:10:48.162Z,20.27
2019-02-19T21:13:17.109Z,20.73
2019-02-19T21:15:45.792Z,24.53
2019-02-19T21:18:14.563Z,22.43
2019-02-19T21:20:43.289Z,22.67
2019-02-19T21:23:11.915Z,18.97
2019-02-19T21:25:40.853Z,20.60
2019-02-19T21:28:09.511Z,17.80
2019-02-19T21:30:38.123Z,18.80
2019-02-19T21:33:07.139Z,22.20
2019-02-19T21:35:35.897Z,22.00
2019-02-19T21:38:04.573Z,20.47
2019-02-19T21:40:33.169Z,22.77
2019-02-19T21:43:01.985Z,50.90
2019-02-19T21:45:30.777Z,46.47
2019-02-19T21:47:59.626Z,29.87
2019-02-19T21:50:28.194Z,20.53
2019-02-19T21:52:56.763Z,24.87
2019-02-19T21:55:25.343Z,19.77
2019-02-19T21:57:54.005Z,17.67
2019-02-19T22:00:22.903Z,15.57
2019-02-19T22:02:51.502Z,18.50
2019-02-19T22:05:20.063Z,23.60
2019-02-19T22:07:48.649Z,19.40
2019-02-19T22:10:17.334Z,20.67
2019-02-19T22:12:45.817Z,21.73
2019-02-19T22:15:15.630Z,20.13
2019-02-19T22:17:44.220Z,23.30
2019-02-19T22:20:26.425Z,25.20
2019-02-19T22:22:55.045Z,19.70
2019-02-19T22:25:23.691Z,20.93
2019-02-19T22:27:53.532Z,24.17
2019-02-19T22:30:22.126Z,19.47
2019-02-19T22:32:51.012Z,23.77
2019-02-19T22:35:19.652Z,23.03
2019-02-19T22:37:48.204Z,22.40
2019-02-19T22:40:16.836Z,22.80
2019-02-19T22:42:54.474Z,23.20
2019-02-19T22:45:23.396Z,19.70
2019-02-19T22:47:53.609Z,18.53
2019-02-19T22:50:22.558Z,19.10
2019-02-19T22:52:52.038Z,20.10
2019-02-19T22:55:22.291Z,21.93
2019-02-19T22:57:50.907Z,21.63
2019-02-19T23:00:39.522Z,18.63
2019-02-19T23:03:09.758Z,21.93
2019-02-19T23:05:38.392Z,20.60
2019-02-19T23:08:07.381Z,22.73
2019-02-19T23:10:35.861Z,20.90
2019-02-19T23:13:04.577Z,24.50
2019-02-19T23:15:33.118Z,22.80
2019-02-19T23:18:01.718Z,24.77
2019-02-19T23:20:30.257Z,19.63
2019-02-19T23:22:58.883Z,20.20
2019-02-19T23:25:27.492Z,19.53
2019-02-19T23:27:56.052Z,17.43
2019-02-19T23:30:24.714Z,19.93
2019-02-19T23:32:53.323Z,19.23
2019-02-19T23:35:39.931Z,20.10
2019-02-19T23:38:08.515Z,17.40
2019-02-19T23:40:37.118Z,19.63
2019-02-19T23:43:05.793Z,22.63
2019-02-19T23:45:34.400Z,23.00
2019-02-19T23:48:03.084Z,25.90
2019-02-19T23:50:51.019Z,23.13
2019-02-19T23:53:19.640Z,21.73
2019-02-19T23:55:48.354Z,20.37
2019-02-19T23:58:16.924Z,19.53
